createdAt,value
2023-03-01T00:01:52.955Z,20.20
2023-03-01T00:04:25.613Z,18.80
2023-03-01T00:06:58.877Z,21.80
2023-03-01T00:09:31.653Z,20.80
2023-03-01T00:12:04.392Z,21.20
2023-03-01T00:14:38.805Z,19.40
2023-03-01T00:17:15.078Z,19.30
2023-03-01T00:19:48.891Z,20.80
2023-03-01T00:22:21.692Z,22.50
2023-03-01T00:24:54.241Z,23.80
2023-03-01T00:27:26.830Z,22.70
2023-03-01T00:29:59.324Z,24.40
2023-03-01T00:32:32.556Z,23.10
2023-03-01T00:35:05.225Z,26.30
2023-03-01T00:37:38.185Z,25.80
2023-03-01T00:40:13.326Z,28.80
2023-03-01T00:42:46.148Z,28.40
2023-03-01T00:45:19.070Z,21.00
2023-03-01T00:47:52.620Z,19.50
2023-03-01T00:50:26.590Z,28.20
2023-03-01T00:52:59.698Z,28.80
2023-03-01T00:55:35.026Z,28.40
2023-03-01T00:58:08.879Z,27.10
2023-03-01T01:03:12.136Z,27.40
2023-03-01T01:05:44.657Z,27.20
2023-03-01T01:08:17.378Z,27.50
2023-03-01T01:10:50.397Z,29.00
2023-03-01T01:13:23.398Z,23.30
2023-03-01T01:15:56.424Z,23.00
2023-03-01T01:18:29.903Z,27.40
2023-03-01T01:21:05.700Z,27.70
2023-03-01T01:23:39.239Z,27.90
2023-03-01T01:26:15.340Z,27.50
2023-03-01T01:28:48.477Z,25.70
2023-03-01T01:31:21.510Z,21.20
2023-03-01T01:33:55.135Z,25.40
2023-03-01T01:36:29.152Z,28.60
2023-03-01T01:41:36.401Z,28.50
2023-03-01T01:44:21.694Z,28.70
2023-03-01T01:46:58.749Z,29.40
2023-03-01T01:49:41.642Z,28.20
2023-03-01T01:52:18.019Z,28.20
2023-03-01T01:54:56.837Z,29.00
2023-03-01T01:57:35.434Z,29.90
2023-03-01T02:00:14.104Z,29.00
2023-03-01T02:02:53.282Z,29.40
2023-03-01T02:05:35.805Z,27.50
2023-03-01T02:08:08.904Z,31.60
2023-03-01T02:10:43.473Z,29.90
2023-03-01T02:13:16.635Z,30.60
2023-03-01T02:15:49.496Z,30.10
2023-03-01T02:18:26.204Z,23.80
2023-03-01T02:21:11.461Z,28.50
2023-03-01T02:23:44.350Z,28.90
2023-03-01T02:26:26.839Z,30.80
2023-03-01T02:28:59.921Z,30.70
2023-03-01T02:31:45.018Z,27.80
2023-03-01T02:34:21.276Z,31.00
2023-03-01T02:36:57.836Z,29.00
2023-03-01T02:39:34.396Z,29.90
2023-03-01T02:42:08.675Z,30.10
2023-03-01T02:44:41.386Z,29.40
2023-03-01T02:47:14.088Z,29.80
2023-03-01T02:49:47.345Z,30.30
2023-03-01T02:52:48.641Z,29.40
2023-03-01T02:55:22.152Z,29.30
2023-03-01T02:57:55.407Z,29.60
2023-03-01T03:00:34.628Z,28.90
2023-03-01T03:03:07.556Z,28.10
2023-03-01T03:05:40.490Z,23.10
2023-03-01T03:08:13.038Z,23.00
2023-03-01T03:10:46.236Z,31.70
2023-03-01T03:13:20.433Z,28.40
2023-03-01T03:15:53.494Z,31.00
2023-03-01T03:18:28.306Z,31.10
2023-03-01T03:21:00.868Z,27.80
2023-03-01T03:23:33.627Z,29.80
2023-03-01T03:26:06.487Z,28.70
2023-03-01T03:28:41.182Z,26.50
2023-03-01T03:31:13.647Z,28.90
2023-03-01T03:33:46.387Z,28.40
2023-03-01T03:36:22.156Z,25.00
2023-03-01T03:38:55.553Z,31.90
2023-03-01T03:41:28.535Z,29.60
2023-03-01T03:44:01.013Z,25.00
2023-03-01T03:46:34.172Z,29.80
2023-03-01T03:49:07.055Z,31.10
2023-03-01T03:51:39.655Z,24.70
2023-03-01T03:54:12.436Z,28.50
2023-03-01T03:56:45.669Z,31.10
2023-03-01T03:59:18.154Z,30.10
2023-03-01T04:01:50.713Z,31.70
2023-03-01T04:04:23.792Z,30.80
2023-03-01T04:06:56.555Z,31.30
2023-03-01T04:09:31.486Z,31.20
2023-03-01T04:12:04.296Z,29.10
2023-03-01T04:14:37.203Z,30.80
2023-03-01T04:17:09.725Z,28.50
2023-03-01T04:19:45.278Z,30.00
2023-03-01T04:22:19.778Z,32.60
2023-03-01T04:24:52.581Z,30.70
2023-03-01T04:27:26.157Z,31.50
2023-03-01T04:30:00.766Z,24.40
2023-03-01T04:32:33.332Z,28.60
2023-03-01T04:35:06.424Z,22.70
2023-03-01T04:37:39.515Z,31.10
2023-03-01T04:40:17.668Z,32.50
2023-03-01T04:42:50.588Z,30.10
2023-03-01T04:45:23.176Z,32.20
2023-03-01T04:47:55.824Z,32.00
2023-03-01T04:50:28.795Z,27.90
2023-03-01T04:53:01.607Z,25.10
2023-03-01T04:55:36.374Z,28.50
2023-03-01T04:58:09.119Z,31.30
2023-03-01T05:00:41.868Z,32.70
2023-03-01T05:03:19.417Z,32.50
2023-03-01T05:05:53.812Z,31.60
2023-03-01T05:08:26.337Z,32.60
2023-03-01T05:10:58.886Z,31.80
2023-03-01T05:13:31.774Z,30.30
2023-03-01T05:16:05.905Z,26.90
2023-03-01T05:18:38.477Z,33.10
2023-03-01T05:21:17.493Z,31.90
2023-03-01T05:23:50.703Z,33.10
2023-03-01T05:26:28.967Z,32.10
2023-03-01T05:29:02.482Z,32.20
2023-03-01T05:31:35.060Z,34.30
2023-03-01T05:34:07.835Z,32.90
2023-03-01T05:36:40.671Z,25.80
2023-03-01T05:41:47.706Z,33.90
2023-03-01T05:44:20.668Z,28.50
2023-03-01T05:46:53.906Z,34.00
2023-03-01T05:49:27.416Z,26.00
2023-03-01T05:52:00.022Z,33.20
2023-03-01T05:54:34.768Z,32.60
2023-03-01T05:57:07.570Z,32.20
2023-03-01T05:59:42.769Z,26.40
2023-03-01T06:02:18.689Z,32.20
2023-03-01T06:04:51.264Z,35.30
2023-03-01T06:07:24.042Z,29.20
2023-03-01T06:10:02.267Z,28.10
2023-03-01T06:12:37.190Z,38.70
2023-03-01T06:15:11.975Z,34.80
2023-03-01T06:17:47.630Z,32.90
2023-03-01T06:20:22.251Z,33.60
2023-03-01T06:22:55.347Z,36.90
2023-03-01T06:25:29.951Z,38.80
2023-03-01T06:28:02.785Z,37.40
2023-03-01T06:30:36.544Z,36.90
2023-03-01T06:33:09.393Z,38.30
2023-03-01T06:35:41.904Z,35.90
2023-03-01T06:38:16.302Z,37.50
2023-03-01T06:40:54.025Z,38.30
2023-03-01T06:43:27.333Z,38.40
2023-03-01T06:46:00.300Z,28.80
2023-03-01T06:48:35.335Z,40.00
2023-03-01T06:51:08.145Z,39.40
2023-03-01T06:53:41.096Z,38.30
2023-03-01T06:56:13.661Z,39.30
2023-03-01T06:58:46.808Z,39.40
2023-03-01T07:01:19.563Z,38.50
2023-03-01T07:03:52.350Z,39.40
2023-03-01T07:06:24.999Z,39.20
2023-03-01T07:08:57.917Z,37.60
2023-03-01T07:11:30.817Z,27.60
2023-03-01T07:14:03.858Z,38.40
2023-03-01T07:16:37.503Z,36.50
2023-03-01T07:19:10.400Z,36.50
2023-03-01T07:21:43.023Z,30.20
2023-03-01T07:24:15.808Z,37.80
2023-03-01T07:26:50.808Z,29.80
2023-03-01T07:29:23.560Z,37.90
2023-03-01T07:31:57.339Z,38.90
2023-03-01T07:34:30.063Z,39.40
2023-03-01T07:37:02.582Z,39.20
2023-03-01T07:39:35.259Z,41.10
2023-03-01T07:42:08.513Z,39.10
2023-03-01T07:44:41.187Z,40.60
2023-03-01T07:47:13.908Z,40.70
2023-03-01T07:49:48.366Z,38.50
2023-03-01T07:52:20.869Z,38.90
2023-03-01T07:54:53.717Z,39.70
2023-03-01T07:57:26.607Z,40.50
2023-03-01T07:59:59.457Z,38.80
2023-03-01T08:02:32.342Z,40.10
2023-03-01T08:05:05.206Z,41.20
2023-03-01T08:07:40.853Z,38.40
2023-03-01T08:10:15.199Z,37.90
2023-03-01T08:12:47.554Z,37.70
2023-03-01T08:15:20.879Z,39.80
2023-03-01T08:17:55.035Z,36.50
2023-03-01T08:20:28.379Z,36.70
2023-03-01T08:23:02.375Z,37.20
2023-03-01T08:25:35.150Z,37.80
2023-03-01T08:28:08.202Z,38.00
2023-03-01T08:30:40.993Z,37.60
2023-03-01T08:33:13.686Z,36.70
2023-03-01T08:35:46.498Z,38.00
2023-03-01T08:38:19.007Z,39.00
2023-03-01T08:40:52.006Z,36.50
2023-03-01T08:43:28.189Z,34.80
2023-03-01T08:46:01.190Z,34.90
2023-03-01T08:48:33.993Z,26.50
2023-03-01T08:51:14.415Z,29.80
2023-03-01T08:53:47.403Z,36.90
2023-03-01T08:56:21.333Z,38.30
2023-03-01T08:58:53.897Z,34.40
2023-03-01T09:01:27.256Z,25.60
2023-03-01T09:04:00.194Z,32.30
2023-03-01T09:06:35.758Z,31.30
2023-03-01T09:09:16.386Z,31.00
2023-03-01T09:11:51.452Z,31.40
2023-03-01T09:14:24.408Z,29.20
2023-03-01T09:16:58.499Z,30.00
2023-03-01T09:19:31.040Z,26.90
2023-03-01T09:22:05.738Z,25.30
2023-03-01T09:24:38.906Z,27.40
2023-03-01T09:27:12.597Z,24.20
2023-03-01T09:32:16.042Z,19.70
2023-03-01T09:35:06.014Z,21.60
2023-03-01T09:37:41.118Z,22.70
2023-03-01T09:40:18.736Z,21.20
2023-03-01T09:43:10.180Z,24.10
2023-03-01T09:45:46.801Z,21.60
2023-03-01T09:48:24.820Z,21.90
2023-03-01T09:50:57.948Z,20.60
2023-03-01T09:53:37.459Z,22.70
2023-03-01T09:56:23.019Z,20.60
2023-03-01T09:59:02.535Z,20.10
2023-03-01T10:01:46.747Z,18.60
2023-03-01T10:04:30.528Z,18.70
2023-03-01T10:07:17.183Z,15.20
2023-03-01T10:09:50.036Z,16.40
2023-03-01T10:12:25.182Z,16.50
2023-03-01T10:15:03.822Z,19.00
2023-03-01T10:17:40.328Z,29.30
2023-03-01T10:20:21.322Z,23.40
2023-03-01T10:22:56.902Z,19.50
2023-03-01T10:25:44.010Z,18.90
2023-03-01T10:28:23.431Z,19.50
2023-03-01T10:30:56.683Z,18.50
2023-03-01T10:33:33.699Z,19.70
2023-03-01T10:36:07.557Z,34.20
2023-03-01T10:38:55.458Z,20.80
2023-03-01T10:41:30.277Z,46.20
2023-03-01T10:44:03.656Z,21.00
2023-03-01T10:46:38.538Z,19.80
2023-03-01T10:49:27.600Z,19.30
2023-03-01T10:52:14.790Z,20.00
2023-03-01T10:54:57.099Z,21.70
2023-03-01T10:57:42.883Z,20.90
2023-03-01T11:00:26.238Z,19.70
2023-03-01T11:03:16.321Z,17.00
2023-03-01T11:06:03.173Z,18.00
2023-03-01T11:08:38.968Z,37.00
2023-03-01T11:11:38.395Z,18.30
2023-03-01T11:14:27.336Z,16.20
2023-03-01T11:17:14.144Z,15.70
2023-03-01T11:20:02.827Z,16.90
2023-03-01T11:22:38.462Z,17.70
2023-03-01T11:25:16.888Z,16.90
2023-03-01T11:27:49.904Z,30.90
2023-03-01T11:30:27.462Z,16.00
2023-03-01T11:33:14.302Z,19.60
2023-03-01T11:35:57.234Z,15.80
2023-03-01T11:38:32.005Z,13.70
2023-03-01T11:41:10.720Z,18.60
2023-03-01T11:43:54.951Z,14.50
2023-03-01T11:46:52.224Z,10.20
2023-03-01T11:49:52.727Z,10.40
2023-03-01T11:52:37.251Z,10.70
2023-03-01T11:55:39.667Z,11.60
2023-03-01T11:58:26.078Z,9.90
2023-03-01T12:01:41.748Z,11.10
2023-03-01T12:04:33.431Z,11.40
2023-03-01T12:07:12.100Z,11.90
2023-03-01T12:10:09.351Z,10.80
2023-03-01T12:12:55.155Z,13.20
2023-03-01T12:15:54.280Z,13.00
2023-03-01T12:18:54.448Z,15.50
2023-03-01T12:21:41.598Z,14.10
2023-03-01T12:24:45.929Z,14.50
2023-03-01T12:27:32.692Z,14.50
2023-03-01T12:30:20.060Z,13.60
2023-03-01T12:33:04.138Z,13.70
2023-03-01T12:38:36.074Z,12.50
2023-03-01T12:41:24.928Z,12.10
2023-03-01T12:44:05.839Z,13.90
2023-03-01T12:46:54.081Z,13.80
2023-03-01T12:49:41.197Z,13.60
2023-03-01T12:52:19.770Z,13.30
2023-03-01T12:54:56.173Z,15.20
2023-03-01T12:57:38.380Z,14.60
2023-03-01T13:00:27.684Z,15.20
2023-03-01T13:03:12.387Z,14.80
2023-03-01T13:05:59.143Z,14.50
2023-03-01T13:08:40.368Z,15.30
2023-03-01T13:11:21.470Z,15.20
2023-03-01T13:13:56.060Z,14.20
2023-03-01T13:16:46.463Z,13.90
2023-03-01T13:19:21.564Z,16.50
2023-03-01T13:21:56.639Z,15.50
2023-03-01T13:24:40.375Z,16.60
2023-03-01T13:27:30.699Z,16.30
2023-03-01T13:32:55.316Z,17.20
2023-03-01T13:35:47.794Z,15.90
2023-03-01T13:38:47.684Z,16.10
2023-03-01T13:41:40.910Z,15.60
2023-03-01T13:44:28.220Z,17.10
2023-03-01T13:47:18.674Z,17.60
2023-03-01T13:49:55.008Z,16.90
2023-03-01T13:52:40.676Z,17.10
2023-03-01T13:55:23.938Z,17.50
2023-03-01T13:58:01.579Z,15.60
2023-03-01T14:00:39.937Z,15.60
2023-03-01T14:03:17.886Z,15.40
2023-03-01T14:06:17.308Z,18.40
2023-03-01T14:09:03.048Z,19.70
2023-03-01T14:12:02.757Z,22.40
2023-03-01T14:14:47.742Z,16.40
2023-03-01T14:17:37.557Z,29.10
2023-03-01T14:20:19.468Z,19.20
2023-03-01T14:22:55.560Z,16.20
2023-03-01T14:25:34.053Z,19.70
2023-03-01T14:28:17.544Z,17.40
2023-03-01T14:30:52.510Z,13.90
2023-03-01T14:33:29.740Z,14.50
2023-03-01T14:36:08.528Z,15.40
2023-03-01T14:38:43.542Z,19.00
2023-03-01T14:41:21.546Z,16.30
2023-03-01T14:44:01.486Z,16.20
2023-03-01T14:46:39.051Z,12.50
2023-03-01T14:49:16.932Z,15.30
2023-03-01T14:51:55.993Z,14.40
2023-03-01T14:54:38.059Z,12.40
2023-03-01T14:57:17.712Z,13.50
2023-03-01T14:59:55.938Z,13.90
2023-03-01T15:02:31.028Z,14.40
2023-03-01T15:05:09.221Z,13.50
2023-03-01T15:07:50.233Z,13.50
2023-03-01T15:10:30.677Z,14.10
2023-03-01T15:13:15.317Z,13.80
2023-03-01T15:15:49.467Z,13.20
2023-03-01T15:18:25.194Z,14.50
2023-03-01T15:20:59.035Z,12.80
2023-03-01T15:26:04.888Z,12.00
2023-03-01T15:28:42.537Z,12.30
2023-03-01T15:31:24.380Z,11.90
2023-03-01T15:34:10.221Z,13.20
2023-03-01T15:36:46.734Z,13.70
2023-03-01T15:39:44.578Z,11.20
2023-03-01T15:42:38.397Z,11.90
2023-03-01T15:45:26.098Z,13.50
2023-03-01T15:48:03.236Z,12.90
2023-03-01T15:50:41.242Z,14.50
2023-03-01T15:53:17.448Z,15.00
2023-03-01T15:55:51.544Z,16.90
2023-03-01T15:58:28.021Z,16.30
2023-03-01T16:01:02.327Z,15.20
2023-03-01T16:03:35.634Z,15.20
2023-03-01T16:06:09.234Z,14.70
2023-03-01T16:11:19.585Z,14.60
2023-03-01T16:13:53.378Z,15.30
2023-03-01T16:16:26.598Z,15.30
2023-03-01T16:18:59.436Z,14.00
2023-03-01T16:21:34.645Z,14.90
2023-03-01T16:24:09.092Z,13.50
2023-03-01T16:26:43.488Z,14.00
2023-03-01T16:29:16.821Z,14.60
2023-03-01T16:31:49.812Z,15.10
2023-03-01T16:34:23.305Z,14.10
2023-03-01T16:36:56.110Z,13.50
2023-03-01T16:42:04.525Z,13.50
2023-03-01T16:44:41.856Z,13.40
2023-03-01T16:47:15.084Z,13.00
2023-03-01T16:49:47.877Z,13.70
2023-03-01T16:52:20.552Z,13.50
2023-03-01T16:54:55.155Z,13.60
2023-03-01T16:57:27.758Z,13.70
2023-03-01T17:00:01.113Z,13.40
2023-03-01T17:02:34.212Z,10.40
2023-03-01T17:05:08.496Z,12.80
2023-03-01T17:07:41.748Z,13.30
2023-03-01T17:10:16.066Z,13.00
2023-03-01T17:12:50.277Z,15.50
2023-03-01T17:15:22.976Z,11.80
2023-03-01T17:17:55.589Z,12.90
2023-03-01T17:20:29.225Z,12.90
2023-03-01T17:23:02.899Z,12.70
2023-03-01T17:25:37.986Z,13.50
2023-03-01T17:28:21.419Z,11.70
2023-03-01T17:30:54.695Z,13.30
2023-03-01T17:33:28.159Z,13.00
2023-03-01T17:36:04.754Z,13.00
2023-03-01T17:38:39.156Z,13.20
2023-03-01T17:41:12.743Z,12.30
2023-03-01T17:43:46.213Z,12.90
2023-03-01T17:46:23.560Z,12.80
2023-03-01T17:48:59.353Z,11.90
2023-03-01T17:51:33.223Z,13.10
2023-03-01T17:54:06.627Z,13.10
2023-03-01T17:56:43.014Z,12.80
2023-03-01T17:59:18.125Z,13.60
2023-03-01T18:01:51.337Z,13.10
2023-03-01T18:04:25.535Z,13.10
2023-03-01T18:06:59.953Z,13.20
2023-03-01T18:09:33.028Z,13.40
2023-03-01T18:12:06.312Z,13.30
2023-03-01T18:14:39.304Z,14.90
2023-03-01T18:17:13.581Z,14.10
2023-03-01T18:19:46.054Z,14.60
2023-03-01T18:22:19.022Z,13.20
2023-03-01T18:24:51.415Z,14.00
2023-03-01T18:27:24.059Z,14.10
2023-03-01T18:29:58.352Z,14.30
2023-03-01T18:32:31.205Z,13.90
2023-03-01T18:35:05.444Z,10.70
2023-03-01T18:37:38.837Z,12.70
2023-03-01T18:40:14.356Z,13.30
2023-03-01T18:42:47.026Z,14.30
2023-03-01T18:45:20.225Z,15.40
2023-03-01T18:47:54.186Z,18.50
2023-03-01T18:50:27.637Z,18.40
2023-03-01T18:53:04.266Z,16.50
2023-03-01T18:55:40.807Z,18.20
2023-03-01T18:58:17.275Z,17.10
2023-03-01T19:00:51.982Z,13.40
2023-03-01T19:03:25.213Z,15.70
2023-03-01T19:06:01.216Z,17.90
2023-03-01T19:08:36.864Z,15.20
2023-03-01T19:11:11.870Z,16.60
2023-03-01T19:13:45.965Z,16.40
2023-03-01T19:16:21.325Z,16.90
2023-03-01T19:18:56.804Z,16.10
2023-03-01T19:21:34.232Z,16.50
2023-03-01T19:24:10.046Z,17.00
2023-03-01T19:26:43.724Z,16.50
2023-03-01T19:29:16.803Z,18.90
2023-03-01T19:31:50.520Z,17.00
2023-03-01T19:36:56.809Z,16.70
2023-03-01T19:39:30.763Z,17.20
2023-03-01T19:42:04.904Z,16.20
2023-03-01T19:44:39.072Z,16.40
2023-03-01T19:50:49.085Z,12.90
2023-03-01T19:53:23.606Z,17.80
2023-03-01T19:56:01.414Z,16.50
2023-03-01T19:58:35.658Z,16.90
2023-03-01T20:01:18.674Z,16.70
2023-03-01T20:03:51.268Z,16.20
2023-03-01T20:06:25.998Z,16.10
2023-03-01T20:09:20.995Z,16.50
2023-03-01T20:11:55.146Z,16.70
2023-03-01T20:14:27.782Z,16.70
2023-03-01T20:17:00.565Z,15.30
2023-03-01T20:19:33.594Z,12.20
2023-03-01T20:22:06.224Z,16.20
2023-03-01T20:27:54.340Z,16.60
2023-03-01T20:30:28.361Z,24.70
2023-03-01T20:33:01.090Z,22.40
2023-03-01T20:35:36.435Z,27.10
2023-03-01T20:38:09.887Z,22.60
2023-03-01T20:40:44.399Z,22.40
2023-03-01T20:43:18.671Z,23.70
2023-03-01T20:45:51.336Z,22.80
2023-03-01T20:48:24.321Z,22.20
2023-03-01T20:51:01.928Z,25.10
2023-03-01T20:53:34.672Z,25.50
2023-03-01T20:56:09.181Z,27.90
2023-03-01T20:58:42.333Z,27.60
2023-03-01T21:01:19.288Z,30.90
2023-03-01T21:03:51.747Z,31.10
2023-03-01T21:06:24.892Z,28.00
2023-03-01T21:08:58.232Z,24.90
2023-03-01T21:11:30.957Z,24.20
2023-03-01T21:14:05.758Z,26.80
2023-03-01T21:16:38.382Z,25.80
2023-03-01T21:19:13.860Z,25.90
2023-03-01T21:21:46.757Z,25.90
2023-03-01T21:24:19.436Z,26.50
2023-03-01T21:26:52.034Z,25.80
2023-03-01T21:29:25.307Z,26.00
2023-03-01T21:31:58.511Z,25.40
2023-03-01T21:34:31.306Z,25.00
2023-03-01T21:37:04.347Z,24.70
2023-03-01T21:39:37.871Z,26.50
2023-03-01T21:42:10.574Z,24.70
2023-03-01T21:44:43.141Z,19.80
2023-03-01T21:47:15.705Z,24.60
2023-03-01T21:49:48.968Z,17.60
2023-03-01T21:52:21.565Z,24.00
2023-03-01T21:55:02.297Z,24.40
2023-03-01T21:57:34.983Z,21.70
2023-03-01T22:00:10.386Z,24.60
2023-03-01T22:02:45.267Z,23.50
2023-03-01T22:05:17.891Z,20.00
2023-03-01T22:07:51.270Z,23.20
2023-03-01T22:10:27.423Z,19.90
2023-03-01T22:13:00.948Z,20.30
2023-03-01T22:15:33.511Z,20.40
2023-03-01T22:18:06.190Z,21.00
2023-03-01T22:20:38.901Z,21.30
2023-03-01T22:23:13.099Z,20.90
2023-03-01T22:25:46.635Z,19.90
2023-03-01T22:28:20.530Z,18.70
2023-03-01T22:30:53.084Z,18.50
2023-03-01T22:33:25.994Z,20.10
2023-03-01T22:36:00.048Z,19.30
2023-03-01T22:38:32.707Z,20.10
2023-03-01T22:41:06.455Z,15.30
2023-03-01T22:43:39.569Z,18.90
2023-03-01T22:46:16.942Z,15.30
2023-03-01T22:48:50.006Z,20.20
2023-03-01T22:51:25.577Z,14.10
2023-03-01T22:53:59.076Z,20.00
2023-03-01T22:56:34.418Z,20.20
2023-03-01T22:59:10.067Z,19.40
2023-03-01T23:01:46.610Z,18.90
2023-03-01T23:04:21.066Z,20.70
2023-03-01T23:06:55.355Z,20.60
2023-03-01T23:09:31.102Z,19.40
2023-03-01T23:12:07.005Z,20.40
2023-03-01T23:14:40.803Z,20.60
2023-03-01T23:19:45.872Z,18.90
2023-03-01T23:22:18.419Z,21.70
2023-03-01T23:24:51.066Z,21.70
2023-03-01T23:27:23.753Z,20.00
2023-03-01T23:29:56.262Z,20.70
2023-03-01T23:32:29.659Z,13.70
2023-03-01T23:35:02.430Z,20.40
2023-03-01T23:37:35.182Z,19.70
2023-03-01T23:40:08.783Z,19.40
2023-03-01T23:42:41.758Z,20.20
2023-03-01T23:45:15.358Z,21.10
2023-03-01T23:47:48.030Z,16.00
2023-03-01T23:50:20.821Z,17.60
2023-03-01T23:52:53.497Z,20.60
2023-03-01T23:55:28.247Z,20.90
2023-03-01T23:58:00.841Z,21.60
